createdAt,value
2023-06-15T00:00:25.593Z,2.10
2023-06-15T00:19:49.086Z,2.17
2023-06-15T00:22:16.505Z,2.37
2023-06-15T00:24:43.982Z,2.30
2023-06-15T00:27:11.337Z,2.40
2023-06-15T00:29:38.657Z,2.03
2023-06-15T00:35:01.169Z,1.90
2023-06-15T00:37:29.887Z,2.17
2023-06-15T00:39:57.304Z,1.93
2023-06-15T00:42:24.653Z,1.80
2023-06-15T00:44:51.996Z,1.97
2023-06-15T00:47:38.866Z,2.00
2023-06-15T00:53:23.105Z,2.00
2023-06-15T00:55:50.953Z,2.00
2023-06-15T00:58:19.240Z,2.20
2023-06-15T01:00:47.766Z,2.20
2023-06-15T01:03:15.272Z,2.07
2023-06-15T01:05:44.096Z,2.00
2023-06-15T01:08:11.373Z,1.80
2023-06-15T01:10:39.131Z,2.37
2023-06-15T01:13:07.045Z,2.80
2023-06-15T01:15:36.298Z,2.30
2023-06-15T01:18:04.225Z,2.83
2023-06-15T01:20:33.884Z,2.33
2023-06-15T01:26:50.826Z,2.80
2023-06-15T01:29:18.360Z,2.33
2023-06-15T01:31:46.083Z,2.37
2023-06-15T01:34:13.453Z,2.70
2023-06-15T01:36:51.401Z,2.73
2023-06-15T01:39:18.725Z,3.10
2023-06-15T01:41:46.684Z,2.60
2023-06-15T01:44:15.779Z,2.30
2023-06-15T01:46:43.782Z,2.60
2023-06-15T01:49:11.151Z,3.90
2023-06-15T01:51:38.451Z,3.17
2023-06-15T02:22:45.235Z,2.97
2023-06-15T02:25:14.674Z,3.03
2023-06-15T02:27:42.466Z,3.33
2023-06-15T02:30:10.386Z,3.10
2023-06-15T02:32:38.386Z,3.17
2023-06-15T02:35:08.348Z,3.00
2023-06-15T02:37:59.723Z,3.00
2023-06-15T02:40:55.656Z,3.73
2023-06-15T02:43:24.987Z,3.10
2023-06-15T02:45:52.354Z,3.10
2023-06-15T02:48:20.047Z,3.50
2023-06-15T02:50:47.374Z,3.10
2023-06-15T02:53:20.141Z,3.00
2023-06-15T03:15:34.302Z,3.27
2023-06-15T03:18:02.086Z,3.70
2023-06-15T03:20:30.592Z,3.20
2023-06-15T03:22:57.887Z,3.97
2023-06-15T03:25:25.185Z,3.88
2023-06-15T03:27:53.018Z,3.80
2023-06-15T03:30:21.166Z,3.93
2023-06-15T03:32:49.773Z,3.23
2023-06-15T03:35:17.376Z,3.70
2023-06-15T03:38:04.801Z,3.43
2023-06-15T03:41:07.159Z,3.70
2023-06-15T03:43:34.452Z,3.70
2023-06-15T03:46:02.398Z,3.07
2023-06-15T03:48:31.095Z,3.63
2023-06-15T03:50:59.434Z,3.20
2023-06-15T03:53:27.232Z,3.47
2023-06-15T03:58:30.512Z,4.27
2023-06-15T04:00:58.326Z,4.60
2023-06-15T04:03:26.045Z,3.67
2023-06-15T04:06:04.325Z,3.80
2023-06-15T04:09:00.162Z,4.07
2023-06-15T04:11:39.994Z,4.60
2023-06-15T04:14:07.412Z,3.80
2023-06-15T04:16:35.678Z,4.20
2023-06-15T04:19:04.093Z,4.27
2023-06-15T04:21:33.675Z,3.40
2023-06-15T04:24:01.232Z,4.00
2023-06-15T04:37:46.753Z,4.53
2023-06-15T04:40:16.219Z,4.73
2023-06-15T04:50:24.334Z,4.70
2023-06-15T04:52:56.548Z,4.27
2023-06-15T04:55:33.463Z,4.43
2023-06-15T04:58:00.838Z,4.00
2023-06-15T05:00:28.981Z,4.53
2023-06-15T05:03:01.300Z,4.87
2023-06-15T05:05:28.754Z,3.57
2023-06-15T05:07:57.460Z,4.60
2023-06-15T05:18:59.853Z,3.97
2023-06-15T05:25:34.843Z,4.90
2023-06-15T05:28:05.295Z,2.77
2023-06-15T05:30:34.268Z,3.40
2023-06-15T05:33:02.182Z,3.87
2023-06-15T05:35:29.520Z,3.90
2023-06-15T05:37:56.875Z,4.43
2023-06-15T05:40:24.483Z,3.83
2023-06-15T05:42:52.062Z,4.47
2023-06-15T05:45:21.208Z,4.47
2023-06-15T05:47:48.681Z,4.13
2023-06-15T05:50:16.135Z,4.50
2023-06-15T05:52:43.497Z,4.37
2023-06-15T05:55:10.777Z,4.37
2023-06-15T05:57:38.162Z,4.17
2023-06-15T06:00:06.004Z,3.70
2023-06-15T06:02:43.741Z,3.97
2023-06-15T06:05:19.795Z,3.93
2023-06-15T06:07:47.278Z,3.70
2023-06-15T06:10:14.635Z,4.10
2023-06-15T06:12:42.467Z,3.77
2023-06-15T06:15:10.205Z,4.13
2023-06-15T06:17:53.325Z,4.20
2023-06-15T06:20:26.455Z,4.40
2023-06-15T06:22:53.964Z,4.90
2023-06-15T06:25:21.379Z,2.87
2023-06-15T06:27:49.056Z,4.47
2023-06-15T06:30:16.410Z,2.67
2023-06-15T06:32:43.755Z,3.60
2023-06-15T06:35:11.080Z,3.60
2023-06-15T06:37:39.696Z,3.67
2023-06-15T06:40:07.773Z,4.13
2023-06-15T06:42:35.049Z,3.83
2023-06-15T06:45:02.370Z,2.37
2023-06-15T06:47:29.909Z,3.87
2023-06-15T06:49:57.232Z,4.00
2023-06-15T06:52:24.579Z,4.17
2023-06-15T06:54:53.196Z,3.37
2023-06-15T06:57:21.039Z,4.13
2023-06-15T06:59:48.497Z,3.90
2023-06-15T07:02:15.912Z,4.03
2023-06-15T07:04:45.776Z,3.70
2023-06-15T07:07:13.069Z,4.30
2023-06-15T07:09:40.324Z,3.77
2023-06-15T07:12:10.480Z,3.97
2023-06-15T07:14:37.835Z,3.10
2023-06-15T07:17:05.450Z,3.35
2023-06-15T07:19:32.819Z,4.00
2023-06-15T07:29:00.287Z,3.60
2023-06-15T07:31:27.595Z,3.73
2023-06-15T07:33:55.087Z,3.33
2023-06-15T07:36:22.371Z,3.73
2023-06-15T07:38:49.652Z,3.10
2023-06-15T07:41:22.268Z,4.03
2023-06-15T07:43:49.640Z,3.77
2023-06-15T07:46:18.625Z,4.13
2023-06-15T07:48:47.099Z,3.70
2023-06-15T07:51:41.950Z,3.57
2023-06-15T07:54:38.678Z,3.10
2023-06-15T07:57:06.289Z,2.47
2023-06-15T07:59:33.524Z,3.77
2023-06-15T08:02:02.200Z,3.37
2023-06-15T08:04:29.487Z,4.07
2023-06-15T08:06:56.843Z,3.80
2023-06-15T08:14:49.027Z,3.37
2023-06-15T08:17:17.888Z,2.90
2023-06-15T08:26:49.028Z,3.73
2023-06-15T08:29:23.584Z,3.23
2023-06-15T08:31:52.182Z,2.33
2023-06-15T08:34:20.919Z,3.93
2023-06-15T08:36:49.006Z,3.65
2023-06-15T08:45:00.662Z,3.50
2023-06-15T08:47:29.404Z,3.13
2023-06-15T08:53:52.374Z,4.07
2023-06-15T08:56:19.715Z,2.88
2023-06-15T08:58:47.065Z,3.25
2023-06-15T09:01:14.472Z,3.03
2023-06-15T09:03:42.512Z,3.70
2023-06-15T09:06:09.917Z,3.00
2023-06-15T09:11:44.327Z,3.10
2023-06-15T09:14:12.096Z,2.90
2023-06-15T09:16:39.434Z,3.83
2023-06-15T09:19:08.365Z,3.22
2023-06-15T09:21:40.593Z,3.00
2023-06-15T09:24:17.985Z,3.25
2023-06-15T09:27:17.478Z,2.60
2023-06-15T09:30:12.054Z,3.20
2023-06-15T09:32:39.390Z,3.15
2023-06-15T09:35:06.916Z,2.97
2023-06-15T09:37:34.509Z,3.92
2023-06-15T09:40:04.675Z,2.88
2023-06-15T09:42:33.407Z,2.53
2023-06-15T10:21:47.637Z,3.28
2023-06-15T10:27:56.448Z,3.13
2023-06-15T10:30:28.810Z,3.00
2023-06-15T10:32:58.127Z,2.65
2023-06-15T10:35:27.375Z,3.10
2023-06-15T10:38:03.705Z,3.47
2023-06-15T10:40:31.548Z,3.13
2023-06-15T10:45:48.426Z,3.00
2023-06-15T10:48:22.476Z,3.00
2023-06-15T10:50:50.016Z,2.80
2023-06-15T10:57:14.132Z,2.78
2023-06-15T10:59:43.506Z,2.10
2023-06-15T11:02:29.969Z,3.28
2023-06-15T11:05:02.002Z,2.80
2023-06-15T11:07:29.856Z,3.83
2023-06-15T11:09:57.763Z,3.55
2023-06-15T11:12:39.756Z,3.15
2023-06-15T11:15:09.220Z,3.95
2023-06-15T11:17:51.390Z,3.22
2023-06-15T11:20:38.859Z,3.05
2023-06-15T11:23:26.407Z,3.15
2023-06-15T11:26:16.218Z,3.15
2023-06-15T11:32:48.267Z,2.90
2023-06-15T11:38:26.781Z,3.70
2023-06-15T11:41:00.029Z,3.92
2023-06-15T11:43:52.875Z,3.70
2023-06-15T11:46:21.358Z,3.63
2023-06-15T11:48:49.008Z,3.10
2023-06-15T11:51:18.043Z,3.33
2023-06-15T11:57:33.708Z,3.10
2023-06-15T12:00:01.594Z,3.40
2023-06-15T12:02:28.939Z,3.15
2023-06-15T12:04:58.806Z,3.83
2023-06-15T12:07:36.509Z,3.45
2023-06-15T12:10:06.261Z,3.58
2023-06-15T12:12:40.122Z,2.88
2023-06-15T12:15:07.926Z,2.58
2023-06-15T12:17:36.383Z,3.00
2023-06-15T12:20:04.325Z,3.30
2023-06-15T12:31:38.020Z,3.17
2023-06-15T12:34:13.271Z,3.10
2023-06-15T12:42:33.759Z,3.17
2023-06-15T12:45:01.099Z,3.25
2023-06-15T12:47:28.586Z,3.13
2023-06-15T12:49:55.988Z,3.10
2023-06-15T12:52:25.131Z,2.70
2023-06-15T12:55:12.333Z,2.65
2023-06-15T12:57:58.647Z,2.95
2023-06-15T13:00:26.568Z,2.97
2023-06-15T13:02:54.067Z,2.53
2023-06-15T13:05:21.592Z,2.80
2023-06-15T13:07:49.375Z,3.38
2023-06-15T13:10:18.645Z,2.72
2023-06-15T13:12:49.375Z,2.60
2023-06-15T13:15:19.787Z,3.03
2023-06-15T13:17:48.499Z,3.00
2023-06-15T13:20:16.141Z,2.28
2023-06-15T13:26:32.588Z,2.75
2023-06-15T13:28:59.935Z,2.80
2023-06-15T13:31:27.169Z,2.90
2023-06-15T13:33:59.713Z,2.67
2023-06-15T13:36:26.995Z,2.90
2023-06-15T13:38:54.297Z,2.15
2023-06-15T13:58:39.081Z,2.92
2023-06-15T14:01:06.418Z,2.92
2023-06-15T14:03:34.286Z,3.47
2023-06-15T14:06:01.729Z,3.03
2023-06-15T14:08:29.081Z,2.85
2023-06-15T14:11:18.279Z,2.30
2023-06-15T14:13:47.088Z,2.80
2023-06-15T14:16:14.404Z,2.60
2023-06-15T14:18:41.733Z,2.45
2023-06-15T14:21:08.976Z,2.30
2023-06-15T14:24:01.612Z,3.33
2023-06-15T14:26:41.086Z,2.55
2023-06-15T14:29:09.760Z,2.67
2023-06-15T14:31:38.648Z,2.85
2023-06-15T14:34:11.091Z,2.80
2023-06-15T14:36:39.268Z,2.90
2023-06-15T14:39:06.572Z,2.75
2023-06-15T14:41:39.313Z,2.42
2023-06-15T14:44:14.812Z,2.22
2023-06-15T14:46:42.749Z,2.80
2023-06-15T14:49:10.478Z,2.60
2023-06-15T15:05:30.681Z,2.38
2023-06-15T15:08:13.122Z,1.92
2023-06-15T15:17:55.939Z,2.80
2023-06-15T15:20:23.566Z,2.40
2023-06-15T15:26:47.925Z,2.53
2023-06-15T15:29:15.229Z,2.95
2023-06-15T15:31:42.606Z,2.40
2023-06-15T15:34:11.235Z,2.80
2023-06-15T15:36:38.514Z,2.45
2023-06-15T15:39:05.930Z,2.42
2023-06-15T15:41:39.103Z,2.55
2023-06-15T15:44:06.507Z,2.63
2023-06-15T15:46:34.022Z,2.65
2023-06-15T15:49:01.332Z,2.53
2023-06-15T16:01:46.447Z,2.33
2023-06-15T16:04:16.572Z,2.17
2023-06-15T16:06:44.054Z,2.63
2023-06-15T16:09:11.550Z,2.78
2023-06-15T16:14:20.541Z,3.03
2023-06-15T16:16:50.153Z,2.00
2023-06-15T16:19:25.251Z,2.50
2023-06-15T16:21:52.902Z,2.55
2023-06-15T16:24:23.041Z,2.55
2023-06-15T16:26:50.552Z,3.10
2023-06-15T16:33:12.250Z,2.67
2023-06-15T16:35:59.991Z,2.67
2023-06-15T16:38:27.424Z,2.38
2023-06-15T16:45:16.011Z,2.70
2023-06-15T16:47:42.665Z,2.33
2023-06-15T17:00:13.815Z,2.67
2023-06-15T17:02:41.651Z,2.55
2023-06-15T17:05:30.948Z,2.47
2023-06-15T17:08:15.562Z,2.60
2023-06-15T17:11:09.667Z,2.20
2023-06-15T17:13:37.081Z,2.13
2023-06-15T17:16:06.102Z,2.60
2023-06-15T17:18:33.476Z,2.03
2023-06-15T17:21:00.980Z,3.58
2023-06-15T17:23:34.227Z,2.67
2023-06-15T17:26:56.819Z,2.28
2023-06-15T17:36:31.767Z,2.30
2023-06-15T17:38:59.351Z,2.08
2023-06-15T17:42:01.707Z,2.53
2023-06-15T17:48:54.684Z,2.90
2023-06-15T18:10:27.417Z,2.30
2023-06-15T19:14:45.004Z,3.00
2023-06-15T19:17:12.665Z,2.80
2023-06-15T19:19:40.630Z,2.78
2023-06-15T19:22:10.209Z,3.10
2023-06-15T19:34:44.659Z,2.75
2023-06-15T19:37:13.790Z,2.80
2023-06-15T19:39:58.884Z,2.75
2023-06-15T19:42:57.218Z,2.67
2023-06-15T19:45:27.232Z,3.00
2023-06-15T19:47:54.706Z,2.65
2023-06-15T19:50:24.978Z,3.17
2023-06-15T20:01:20.928Z,2.87
2023-06-15T20:03:48.628Z,2.73
2023-06-15T20:06:16.491Z,3.13
2023-06-15T20:11:19.815Z,3.00
2023-06-15T20:13:47.372Z,2.90
2023-06-15T20:16:15.255Z,2.57
2023-06-15T20:18:45.319Z,3.30
2023-06-15T20:21:12.629Z,2.90
2023-06-15T20:23:39.888Z,2.97
2023-06-15T20:26:17.671Z,3.13
2023-06-15T20:45:34.024Z,3.77
2023-06-15T20:53:45.542Z,3.33
2023-06-15T20:56:13.028Z,3.53
2023-06-15T20:58:40.716Z,4.03
2023-06-15T21:01:09.458Z,3.27
2023-06-15T21:03:37.236Z,3.70
2023-06-15T21:06:04.921Z,3.57
2023-06-15T21:08:32.677Z,3.03
2023-06-15T21:11:22.512Z,3.77
2023-06-15T21:14:02.043Z,3.80
2023-06-15T21:16:30.972Z,3.50
2023-06-15T21:18:58.335Z,3.70
2023-06-15T21:21:25.729Z,3.90
2023-06-15T21:23:53.032Z,3.50
2023-06-15T21:26:20.458Z,3.90
2023-06-15T21:28:47.793Z,4.10
2023-06-15T21:31:15.146Z,4.03
2023-06-15T21:33:43.833Z,3.70
2023-06-15T21:36:11.078Z,4.17
2023-06-15T21:38:38.412Z,4.00
2023-06-15T21:41:05.695Z,4.17
2023-06-15T21:43:33.047Z,4.03
2023-06-15T21:46:00.381Z,3.67
2023-06-15T21:48:27.718Z,3.47
2023-06-15T21:50:56.507Z,3.87
2023-06-15T21:53:23.758Z,3.77
2023-06-15T21:55:51.307Z,3.83
2023-06-15T21:58:18.560Z,4.73
2023-06-15T22:00:46.536Z,4.53
2023-06-15T22:03:13.843Z,5.40
2023-06-15T22:05:41.211Z,4.70
2023-06-15T22:08:09.909Z,4.50
2023-06-15T22:10:37.196Z,4.50
2023-06-15T22:13:04.416Z,4.53
2023-06-15T22:15:31.744Z,4.33
2023-06-15T22:17:59.183Z,4.50
2023-06-15T22:20:26.696Z,5.03
2023-06-15T22:22:54.212Z,4.60
2023-06-15T22:25:22.975Z,5.80
2023-06-15T22:27:50.241Z,5.13
2023-06-15T22:30:17.946Z,5.13
2023-06-15T22:32:45.561Z,5.53
2023-06-15T22:35:12.910Z,5.00
2023-06-15T22:37:40.191Z,5.13
2023-06-15T22:40:07.880Z,6.00
2023-06-15T22:42:36.541Z,5.83
2023-06-15T22:45:03.894Z,5.03
2023-06-15T22:47:31.210Z,5.87
2023-06-15T22:49:58.580Z,6.17
2023-06-15T22:52:26.271Z,5.23
2023-06-15T22:54:53.647Z,5.50
2023-06-15T22:57:20.984Z,6.53
2023-06-15T22:59:49.568Z,6.03
2023-06-15T23:02:16.880Z,5.80
2023-06-15T23:04:44.225Z,6.57
2023-06-15T23:07:11.560Z,6.93
2023-06-15T23:09:38.781Z,6.00
2023-06-15T23:12:06.577Z,5.73
2023-06-15T23:14:33.942Z,6.33
2023-06-15T23:17:02.730Z,5.73
2023-06-15T23:19:30.540Z,6.27
2023-06-15T23:21:58.503Z,5.73
2023-06-15T23:24:25.987Z,5.70
2023-06-15T23:26:53.479Z,5.47
2023-06-15T23:29:21.211Z,5.60
2023-06-15T23:31:48.455Z,5.43
2023-06-15T23:34:17.089Z,5.23
2023-06-15T23:36:44.499Z,5.43
2023-06-15T23:39:11.829Z,5.97
2023-06-15T23:41:41.237Z,5.50
2023-06-15T23:44:08.519Z,4.83
2023-06-15T23:46:35.841Z,5.33
2023-06-15T23:49:03.188Z,5.87
2023-06-15T23:51:31.875Z,5.90
2023-06-15T23:53:59.465Z,5.10
2023-06-15T23:56:26.774Z,4.67
